sensor_id;sensor_type;location;lat;lon;timestamp;P1;durP1;ratioP1;P2;durP2;ratioP2
10497;SDS011;5296;51.060;13.750;2023-02-11T00:02:11;21.97;;;14.57;;
10497;SDS011;5296;51.060;13.750;2023-02-11T00:07:12;22.03;;;14.57;;
10497;SDS011;5296;51.060;13.750;2023-02-11T00:12:14;22.90;;;15.07;;
10497;SDS011;5296;51.060;13.750;2023-02-11T00:17:16;21.43;;;15.13;;
10497;SDS011;5296;51.060;13.750;2023-02-11T00:22:17;19.70;;;15.60;;
10497;SDS011;5296;51.060;13.750;2023-02-11T00:27:19;20.77;;;14.70;;
10497;SDS011;5296;51.060;13.750;2023-02-11T00:32:21;21.60;;;15.07;;
10497;SDS011;5296;51.060;13.750;2023-02-11T00:37:23;19.23;;;14.50;;
10497;SDS011;5296;51.060;13.750;2023-02-11T00:42:25;20.07;;;15.33;;
10497;SDS011;5296;51.060;13.750;2023-02-11T00:47:27;19.87;;;14.30;;
10497;SDS011;5296;51.060;13.750;2023-02-11T00:52:28;20.00;;;14.60;;
10497;SDS011;5296;51.060;13.750;2023-02-11T00:57:30;19.17;;;14.63;;
10497;SDS011;5296;51.060;13.750;2023-02-11T01:02:32;21.80;;;15.50;;
10497;SDS011;5296;51.060;13.750;2023-02-11T01:07:33;20.87;;;15.60;;
10497;SDS011;5296;51.060;13.750;2023-02-11T01:12:36;21.57;;;16.00;;
10497;SDS011;5296;51.060;13.750;2023-02-11T01:17:38;21.43;;;14.73;;
10497;SDS011;5296;51.060;13.750;2023-02-11T01:22:40;19.57;;;14.97;;
10497;SDS011;5296;51.060;13.750;2023-02-11T01:27:41;18.20;;;14.77;;
10497;SDS011;5296;51.060;13.750;2023-02-11T01:32:43;20.93;;;15.17;;
10497;SDS011;5296;51.060;13.750;2023-02-11T01:37:45;19.00;;;15.23;;
10497;SDS011;5296;51.060;13.750;2023-02-11T01:42:46;18.70;;;14.03;;
10497;SDS011;5296;51.060;13.750;2023-02-11T01:47:51;21.23;;;14.83;;
10497;SDS011;5296;51.060;13.750;2023-02-11T01:52:52;20.57;;;15.67;;
10497;SDS011;5296;51.060;13.750;2023-02-11T01:58:14;21.73;;;15.83;;
10497;SDS011;5296;51.060;13.750;2023-02-11T02:03:17;19.80;;;14.73;;
10497;SDS011;5296;51.060;13.750;2023-02-11T02:13:44;20.13;;;15.33;;
10497;SDS011;5296;51.060;13.750;2023-02-11T02:40:14;21.07;;;15.97;;
10497;SDS011;5296;51.060;13.750;2023-02-11T02:45:18;19.50;;;15.20;;
10497;SDS011;5296;51.060;13.750;2023-02-11T02:50:22;22.60;;;15.85;;
10497;SDS011;5296;51.060;13.750;2023-02-11T03:00:57;19.23;;;14.57;;
10497;SDS011;5296;51.060;13.750;2023-02-11T03:11:54;19.80;;;14.70;;
10497;SDS011;5296;51.060;13.750;2023-02-11T03:16:56;18.37;;;14.17;;
10497;SDS011;5296;51.060;13.750;2023-02-11T03:21:59;18.87;;;15.30;;
10497;SDS011;5296;51.060;13.750;2023-02-11T03:27:05;20.17;;;15.50;;
10497;SDS011;5296;51.060;13.750;2023-02-11T03:32:12;18.53;;;14.27;;
10497;SDS011;5296;51.060;13.750;2023-02-11T03:42:38;17.97;;;14.57;;
10497;SDS011;5296;51.060;13.750;2023-02-11T03:47:45;20.30;;;15.07;;
10497;SDS011;5296;51.060;13.750;2023-02-11T03:52:48;20.53;;;15.83;;
10497;SDS011;5296;51.060;13.750;2023-02-11T03:57:50;21.50;;;16.00;;
10497;SDS011;5296;51.060;13.750;2023-02-11T04:02:52;20.10;;;16.00;;
10497;SDS011;5296;51.060;13.750;2023-02-11T04:07:54;19.47;;;15.57;;
10497;SDS011;5296;51.060;13.750;2023-02-11T04:12:55;21.47;;;16.40;;
10497;SDS011;5296;51.060;13.750;2023-02-11T04:17:57;20.53;;;16.60;;
10497;SDS011;5296;51.060;13.750;2023-02-11T04:22:59;20.27;;;16.50;;
10497;SDS011;5296;51.060;13.750;2023-02-11T04:28:00;20.70;;;16.70;;
10497;SDS011;5296;51.060;13.750;2023-02-11T04:33:02;21.40;;;15.83;;
10497;SDS011;5296;51.060;13.750;2023-02-11T04:38:04;20.63;;;16.00;;
10497;SDS011;5296;51.060;13.750;2023-02-11T04:43:05;23.60;;;16.87;;
10497;SDS011;5296;51.060;13.750;2023-02-11T04:48:07;20.03;;;15.60;;
10497;SDS011;5296;51.060;13.750;2023-02-11T04:53:09;23.67;;;16.10;;
10497;SDS011;5296;51.060;13.750;2023-02-11T04:58:10;20.55;;;17.40;;
10497;SDS011;5296;51.060;13.750;2023-02-11T05:03:12;21.27;;;16.43;;
10497;SDS011;5296;51.060;13.750;2023-02-11T05:08:14;21.80;;;16.27;;
10497;SDS011;5296;51.060;13.750;2023-02-11T05:13:15;20.03;;;16.63;;
10497;SDS011;5296;51.060;13.750;2023-02-11T05:18:17;22.80;;;17.47;;
10497;SDS011;5296;51.060;13.750;2023-02-11T05:23:18;23.50;;;16.67;;
10497;SDS011;5296;51.060;13.750;2023-02-11T05:28:20;22.47;;;16.67;;
10497;SDS011;5296;51.060;13.750;2023-02-11T05:33:22;22.80;;;17.37;;
10497;SDS011;5296;51.060;13.750;2023-02-11T05:38:23;25.00;;;17.37;;
10497;SDS011;5296;51.060;13.750;2023-02-11T05:43:25;24.53;;;17.43;;
10497;SDS011;5296;51.060;13.750;2023-02-11T05:48:27;23.25;;;16.80;;
10497;SDS011;5296;51.060;13.750;2023-02-11T05:53:29;22.33;;;17.17;;
10497;SDS011;5296;51.060;13.750;2023-02-11T05:58:31;24.83;;;18.60;;
10497;SDS011;5296;51.060;13.750;2023-02-11T06:03:32;22.87;;;17.67;;
10497;SDS011;5296;51.060;13.750;2023-02-11T06:08:34;25.38;;;18.50;;
10497;SDS011;5296;51.060;13.750;2023-02-11T06:13:39;23.70;;;17.58;;
10497;SDS011;5296;51.060;13.750;2023-02-11T06:18:40;21.97;;;17.37;;
10497;SDS011;5296;51.060;13.750;2023-02-11T06:23:42;23.48;;;18.05;;
10497;SDS011;5296;51.060;13.750;2023-02-11T06:28:44;20.87;;;16.80;;
10497;SDS011;5296;51.060;13.750;2023-02-11T06:33:45;25.40;;;18.77;;
10497;SDS011;5296;51.060;13.750;2023-02-11T06:38:47;25.47;;;17.87;;
10497;SDS011;5296;51.060;13.750;2023-02-11T06:43:50;24.55;;;17.90;;
10497;SDS011;5296;51.060;13.750;2023-02-11T06:48:52;23.38;;;17.88;;
10497;SDS011;5296;51.060;13.750;2023-02-11T06:53:54;24.93;;;17.70;;
10497;SDS011;5296;51.060;13.750;2023-02-11T06:58:56;27.73;;;18.25;;
10497;SDS011;5296;51.060;13.750;2023-02-11T07:03:57;22.30;;;17.30;;
10497;SDS011;5296;51.060;13.750;2023-02-11T07:08:59;24.42;;;17.50;;
10497;SDS011;5296;51.060;13.750;2023-02-11T07:14:02;25.10;;;17.53;;
10497;SDS011;5296;51.060;13.750;2023-02-11T07:19:06;24.05;;;17.33;;
10497;SDS011;5296;51.060;13.750;2023-02-11T07:24:08;25.88;;;18.60;;
10497;SDS011;5296;51.060;13.750;2023-02-11T07:29:11;23.93;;;17.13;;
10497;SDS011;5296;51.060;13.750;2023-02-11T07:34:13;27.80;;;18.10;;
10497;SDS011;5296;51.060;13.750;2023-02-11T07:39:15;22.77;;;17.48;;
10497;SDS011;5296;51.060;13.750;2023-02-11T07:44:16;22.20;;;17.67;;
10497;SDS011;5296;51.060;13.750;2023-02-11T07:49:18;21.43;;;17.10;;
10497;SDS011;5296;51.060;13.750;2023-02-11T07:54:20;24.00;;;17.87;;
10497;SDS011;5296;51.060;13.750;2023-02-11T07:59:22;22.83;;;17.83;;
10497;SDS011;5296;51.060;13.750;2023-02-11T08:04:25;24.20;;;17.77;;
10497;SDS011;5296;51.060;13.750;2023-02-11T08:09:26;26.13;;;18.50;;
10497;SDS011;5296;51.060;13.750;2023-02-11T08:14:28;24.40;;;18.37;;
10497;SDS011;5296;51.060;13.750;2023-02-11T08:19:29;21.85;;;17.83;;
10497;SDS011;5296;51.060;13.750;2023-02-11T08:24:35;25.45;;;17.95;;
10497;SDS011;5296;51.060;13.750;2023-02-11T08:29:36;23.58;;;18.02;;
10497;SDS011;5296;51.060;13.750;2023-02-11T08:34:38;23.88;;;18.73;;
10497;SDS011;5296;51.060;13.750;2023-02-11T08:39:40;22.63;;;17.67;;
10497;SDS011;5296;51.060;13.750;2023-02-11T08:44:41;20.85;;;16.73;;
10497;SDS011;5296;51.060;13.750;2023-02-11T08:49:43;24.70;;;16.93;;
10497;SDS011;5296;51.060;13.750;2023-02-11T08:54:45;24.30;;;18.07;;
10497;SDS011;5296;51.060;13.750;2023-02-11T08:59:47;23.50;;;17.17;;
10497;SDS011;5296;51.060;13.750;2023-02-11T09:04:49;24.15;;;17.33;;
10497;SDS011;5296;51.060;13.750;2023-02-11T09:09:50;21.55;;;16.83;;
10497;SDS011;5296;51.060;13.750;2023-02-11T09:14:52;22.85;;;17.20;;
10497;SDS011;5296;51.060;13.750;2023-02-11T09:19:53;21.35;;;16.60;;
10497;SDS011;5296;51.060;13.750;2023-02-11T09:24:55;23.02;;;17.50;;
10497;SDS011;5296;51.060;13.750;2023-02-11T09:29:57;21.40;;;16.60;;
10497;SDS011;5296;51.060;13.750;2023-02-11T09:34:58;23.60;;;18.17;;
10497;SDS011;5296;51.060;13.750;2023-02-11T09:40:00;22.93;;;18.03;;
10497;SDS011;5296;51.060;13.750;2023-02-11T09:45:03;23.48;;;17.95;;
10497;SDS011;5296;51.060;13.750;2023-02-11T09:50:12;22.42;;;17.85;;
10497;SDS011;5296;51.060;13.750;2023-02-11T10:00:42;25.55;;;19.27;;
10497;SDS011;5296;51.060;13.750;2023-02-11T10:06:00;23.30;;;18.60;;
10497;SDS011;5296;51.060;13.750;2023-02-11T10:11:18;23.88;;;18.35;;
10497;SDS011;5296;51.060;13.750;2023-02-11T10:21:55;25.45;;;18.45;;
10497;SDS011;5296;51.060;13.750;2023-02-11T10:27:13;24.42;;;18.98;;
10497;SDS011;5296;51.060;13.750;2023-02-11T10:32:41;24.40;;;17.17;;
10497;SDS011;5296;51.060;13.750;2023-02-11T10:37:44;26.88;;;18.80;;
10497;SDS011;5296;51.060;13.750;2023-02-11T10:42:53;23.43;;;17.90;;
10497;SDS011;5296;51.060;13.750;2023-02-11T10:47:56;22.50;;;16.80;;
10497;SDS011;5296;51.060;13.750;2023-02-11T10:58:25;21.95;;;17.52;;
10497;SDS011;5296;51.060;13.750;2023-02-11T11:03:31;22.45;;;17.92;;
10497;SDS011;5296;51.060;13.750;2023-02-11T11:08:37;23.75;;;18.20;;
10497;SDS011;5296;51.060;13.750;2023-02-11T11:13:41;23.73;;;17.00;;
10497;SDS011;5296;51.060;13.750;2023-02-11T11:24:43;21.60;;;17.83;;
10497;SDS011;5296;51.060;13.750;2023-02-11T11:29:47;21.50;;;17.00;;
10497;SDS011;5296;51.060;13.750;2023-02-11T11:34:54;20.55;;;17.23;;
10497;SDS011;5296;51.060;13.750;2023-02-11T11:50:26;21.02;;;15.90;;
10497;SDS011;5296;51.060;13.750;2023-02-11T11:55:36;20.63;;;16.77;;
10497;SDS011;5296;51.060;13.750;2023-02-11T12:43:23;19.25;;;15.85;;
10497;SDS011;5296;51.060;13.750;2023-02-11T12:59:11;21.13;;;17.05;;
10497;SDS011;5296;51.060;13.750;2023-02-11T13:09:40;19.95;;;15.43;;
10497;SDS011;5296;51.060;13.750;2023-02-11T13:14:44;19.40;;;15.45;;
10497;SDS011;5296;51.060;13.750;2023-02-11T13:19:49;22.70;;;16.05;;
10497;SDS011;5296;51.060;13.750;2023-02-11T13:25:05;22.17;;;16.80;;
10497;SDS011;5296;51.060;13.750;2023-02-11T13:30:27;22.88;;;16.63;;
10497;SDS011;5296;51.060;13.750;2023-02-11T13:36:17;20.50;;;15.30;;
10497;SDS011;5296;51.060;13.750;2023-02-11T13:41:03;21.85;;;15.25;;
10497;SDS011;5296;51.060;13.750;2023-02-11T13:46:06;17.27;;;14.52;;
10497;SDS011;5296;51.060;13.750;2023-02-11T13:51:13;20.10;;;15.00;;
10497;SDS011;5296;51.060;13.750;2023-02-11T13:56:30;17.70;;;14.43;;
10497;SDS011;5296;51.060;13.750;2023-02-11T14:12:42;18.25;;;14.57;;
10497;SDS011;5296;51.060;13.750;2023-02-11T14:23:49;18.45;;;15.18;;
10497;SDS011;5296;51.060;13.750;2023-02-11T14:39:36;19.98;;;15.38;;
10497;SDS011;5296;51.060;13.750;2023-02-11T14:44:40;19.58;;;14.68;;
10497;SDS011;5296;51.060;13.750;2023-02-11T14:49:42;19.70;;;15.23;;
10497;SDS011;5296;51.060;13.750;2023-02-11T14:54:44;19.98;;;15.10;;
10497;SDS011;5296;51.060;13.750;2023-02-11T15:00:31;17.73;;;15.15;;
10497;SDS011;5296;51.060;13.750;2023-02-11T15:05:22;18.73;;;15.30;;
10497;SDS011;5296;51.060;13.750;2023-02-11T15:15:31;18.98;;;14.85;;
10497;SDS011;5296;51.060;13.750;2023-02-11T15:20:36;19.05;;;14.10;;
10497;SDS011;5296;51.060;13.750;2023-02-11T15:25:43;18.23;;;14.23;;
10497;SDS011;5296;51.060;13.750;2023-02-11T15:30:58;18.80;;;14.73;;
10497;SDS011;5296;51.060;13.750;2023-02-11T15:36:15;17.40;;;14.30;;
10497;SDS011;5296;51.060;13.750;2023-02-11T15:41:31;18.15;;;13.63;;
10497;SDS011;5296;51.060;13.750;2023-02-11T15:46:36;18.98;;;14.88;;
10497;SDS011;5296;51.060;13.750;2023-02-11T15:51:39;18.77;;;14.48;;
10497;SDS011;5296;51.060;13.750;2023-02-11T15:56:49;18.00;;;14.93;;
10497;SDS011;5296;51.060;13.750;2023-02-11T16:01:52;18.55;;;14.75;;
10497;SDS011;5296;51.060;13.750;2023-02-11T16:06:55;17.60;;;13.67;;
10497;SDS011;5296;51.060;13.750;2023-02-11T16:11:58;18.23;;;13.43;;
10497;SDS011;5296;51.060;13.750;2023-02-11T16:17:11;19.13;;;15.30;;
10497;SDS011;5296;51.060;13.750;2023-02-11T16:22:23;17.92;;;14.52;;
10497;SDS011;5296;51.060;13.750;2023-02-11T16:27:27;16.67;;;14.80;;
10497;SDS011;5296;51.060;13.750;2023-02-11T16:32:30;19.35;;;14.85;;
10497;SDS011;5296;51.060;13.750;2023-02-11T16:37:32;17.27;;;13.95;;
10497;SDS011;5296;51.060;13.750;2023-02-11T16:42:35;18.02;;;14.40;;
10497;SDS011;5296;51.060;13.750;2023-02-11T16:47:37;17.55;;;14.80;;
10497;SDS011;5296;51.060;13.750;2023-02-11T16:52:41;21.45;;;15.35;;
10497;SDS011;5296;51.060;13.750;2023-02-11T16:57:43;20.42;;;15.23;;
10497;SDS011;5296;51.060;13.750;2023-02-11T17:02:44;18.58;;;15.00;;
10497;SDS011;5296;51.060;13.750;2023-02-11T17:07:46;17.77;;;15.15;;
10497;SDS011;5296;51.060;13.750;2023-02-11T17:12:48;17.73;;;15.10;;
10497;SDS011;5296;51.060;13.750;2023-02-11T17:17:51;18.77;;;14.80;;
10497;SDS011;5296;51.060;13.750;2023-02-11T17:22:52;20.38;;;15.25;;
10497;SDS011;5296;51.060;13.750;2023-02-11T17:27:54;18.60;;;15.85;;
10497;SDS011;5296;51.060;13.750;2023-02-11T17:32:56;17.95;;;14.95;;
10497;SDS011;5296;51.060;13.750;2023-02-11T17:37:57;19.15;;;15.77;;
10497;SDS011;5296;51.060;13.750;2023-02-11T17:42:59;19.52;;;15.13;;
10497;SDS011;5296;51.060;13.750;2023-02-11T17:48:01;17.40;;;14.95;;
10497;SDS011;5296;51.060;13.750;2023-02-11T17:53:02;20.98;;;14.55;;
10497;SDS011;5296;51.060;13.750;2023-02-11T17:58:04;19.80;;;14.75;;
10497;SDS011;5296;51.060;13.750;2023-02-11T18:03:05;16.55;;;13.93;;
10497;SDS011;5296;51.060;13.750;2023-02-11T18:08:07;16.38;;;14.07;;
10497;SDS011;5296;51.060;13.750;2023-02-11T18:13:09;16.65;;;13.63;;
10497;SDS011;5296;51.060;13.750;2023-02-11T18:18:10;16.63;;;13.32;;
10497;SDS011;5296;51.060;13.750;2023-02-11T18:23:12;17.98;;;14.38;;
10497;SDS011;5296;51.060;13.750;2023-02-11T18:28:14;15.80;;;13.95;;
10497;SDS011;5296;51.060;13.750;2023-02-11T18:33:15;18.75;;;14.80;;
10497;SDS011;5296;51.060;13.750;2023-02-11T18:38:17;18.73;;;13.93;;
10497;SDS011;5296;51.060;13.750;2023-02-11T18:43:18;17.45;;;14.63;;
10497;SDS011;5296;51.060;13.750;2023-02-11T18:48:20;16.05;;;13.23;;
10497;SDS011;5296;51.060;13.750;2023-02-11T18:53:22;17.67;;;14.25;;
10497;SDS011;5296;51.060;13.750;2023-02-11T18:58:24;17.17;;;13.82;;
10497;SDS011;5296;51.060;13.750;2023-02-11T19:03:26;15.98;;;13.38;;
10497;SDS011;5296;51.060;13.750;2023-02-11T19:08:28;16.05;;;12.63;;
10497;SDS011;5296;51.060;13.750;2023-02-11T19:13:29;18.50;;;14.48;;
10497;SDS011;5296;51.060;13.750;2023-02-11T19:18:31;15.93;;;13.70;;
10497;SDS011;5296;51.060;13.750;2023-02-11T19:23:32;14.93;;;12.43;;
10497;SDS011;5296;51.060;13.750;2023-02-11T19:28:34;15.60;;;12.73;;
10497;SDS011;5296;51.060;13.750;2023-02-11T19:33:37;16.88;;;13.55;;
10497;SDS011;5296;51.060;13.750;2023-02-11T19:38:39;17.70;;;14.55;;
10497;SDS011;5296;51.060;13.750;2023-02-11T19:43:41;16.88;;;14.18;;
10497;SDS011;5296;51.060;13.750;2023-02-11T19:48:43;16.35;;;13.23;;
10497;SDS011;5296;51.060;13.750;2023-02-11T19:53:45;13.73;;;12.00;;
10497;SDS011;5296;51.060;13.750;2023-02-11T19:58:47;14.00;;;11.93;;
10497;SDS011;5296;51.060;13.750;2023-02-11T20:03:49;15.07;;;12.00;;
10497;SDS011;5296;51.060;13.750;2023-02-11T20:08:56;14.43;;;11.55;;
10497;SDS011;5296;51.060;13.750;2023-02-11T20:13:59;13.40;;;11.73;;
10497;SDS011;5296;51.060;13.750;2023-02-11T20:19:01;13.02;;;11.10;;
10497;SDS011;5296;51.060;13.750;2023-02-11T20:24:02;12.75;;;11.32;;
10497;SDS011;5296;51.060;13.750;2023-02-11T20:29:04;12.50;;;11.15;;
10497;SDS011;5296;51.060;13.750;2023-02-11T20:34:05;13.00;;;11.68;;
10497;SDS011;5296;51.060;13.750;2023-02-11T20:39:07;14.65;;;11.52;;
10497;SDS011;5296;51.060;13.750;2023-02-11T20:44:11;12.55;;;11.18;;
10497;SDS011;5296;51.060;13.750;2023-02-11T20:49:13;14.25;;;11.93;;
10497;SDS011;5296;51.060;13.750;2023-02-11T20:54:18;15.18;;;12.23;;
10497;SDS011;5296;51.060;13.750;2023-02-11T20:59:20;13.45;;;12.05;;
10497;SDS011;5296;51.060;13.750;2023-02-11T21:04:26;14.93;;;11.90;;
10497;SDS011;5296;51.060;13.750;2023-02-11T21:09:30;13.43;;;11.75;;
10497;SDS011;5296;51.060;13.750;2023-02-11T21:14:33;14.98;;;12.57;;
10497;SDS011;5296;51.060;13.750;2023-02-11T21:19:34;13.30;;;11.90;;
10497;SDS011;5296;51.060;13.750;2023-02-11T21:24:36;15.27;;;12.43;;
10497;SDS011;5296;51.060;13.750;2023-02-11T21:29:38;14.43;;;12.93;;
10497;SDS011;5296;51.060;13.750;2023-02-11T21:34:53;16.38;;;13.13;;
10497;SDS011;5296;51.060;13.750;2023-02-11T21:39:55;15.65;;;13.02;;
10497;SDS011;5296;51.060;13.750;2023-02-11T21:44:57;14.38;;;12.77;;
10497;SDS011;5296;51.060;13.750;2023-02-11T21:49:58;14.75;;;13.18;;
10497;SDS011;5296;51.060;13.750;2023-02-11T21:55:00;16.23;;;13.05;;
10497;SDS011;5296;51.060;13.750;2023-02-11T22:00:03;14.32;;;12.85;;
10497;SDS011;5296;51.060;13.750;2023-02-11T22:05:05;14.85;;;13.30;;
10497;SDS011;5296;51.060;13.750;2023-02-11T22:10:07;14.35;;;12.80;;
10497;SDS011;5296;51.060;13.750;2023-02-11T22:15:09;15.90;;;14.20;;
10497;SDS011;5296;51.060;13.750;2023-02-11T22:20:11;16.13;;;14.15;;
10497;SDS011;5296;51.060;13.750;2023-02-11T22:25:12;16.02;;;14.23;;
10497;SDS011;5296;51.060;13.750;2023-02-11T22:30:14;15.77;;;13.75;;
10497;SDS011;5296;51.060;13.750;2023-02-11T22:35:16;16.50;;;14.05;;
10497;SDS011;5296;51.060;13.750;2023-02-11T22:40:18;16.05;;;14.35;;
10497;SDS011;5296;51.060;13.750;2023-02-11T22:45:19;16.48;;;14.40;;
10497;SDS011;5296;51.060;13.750;2023-02-11T22:50:21;18.38;;;15.27;;
10497;SDS011;5296;51.060;13.750;2023-02-11T22:55:22;18.98;;;15.43;;
10497;SDS011;5296;51.060;13.750;2023-02-11T23:00:24;17.45;;;14.38;;
10497;SDS011;5296;51.060;13.750;2023-02-11T23:05:26;17.55;;;14.70;;
10497;SDS011;5296;51.060;13.750;2023-02-11T23:10:28;16.92;;;14.70;;
10497;SDS011;5296;51.060;13.750;2023-02-11T23:15:29;19.00;;;16.27;;
10497;SDS011;5296;51.060;13.750;2023-02-11T23:20:32;17.85;;;15.27;;
10497;SDS011;5296;51.060;13.750;2023-02-11T23:25:41;19.17;;;16.20;;
10497;SDS011;5296;51.060;13.750;2023-02-11T23:30:43;17.35;;;15.23;;
10497;SDS011;5296;51.060;13.750;2023-02-11T23:35:45;20.23;;;16.30;;
10497;SDS011;5296;51.060;13.750;2023-02-11T23:40:47;20.80;;;17.48;;
10497;SDS011;5296;51.060;13.750;2023-02-11T23:45:49;22.00;;;17.60;;
10497;SDS011;5296;51.060;13.750;2023-02-11T23:50:52;22.55;;;18.00;;
10497;SDS011;5296;51.060;13.750;2023-02-11T23:55:54;21.98;;;17.90;;
